Flight Track Log - Related Links

Times and Time Zones

All times are in EDT time to prevent confusion due to time zone crossing. See the N210FT flight status page for this flight to view local times or setup timezone preferences in your user account.

Time Position Orientation Groundspeed Altitude Reporting Facility
EDT Latitude Longitude Course Direction KTS MPH feet Rate Location/Type
Fri 04:15:34 PM 26.1631 -81.1642 88° East 122 140 4,900  Level Miami Center
Fri 04:16:34 PM 26.1642 -81.1297 88° East 122 140 4,500  Descending Miami Center
Fri 04:17:34 PM 26.1653 -81.0928 88° East 122 140 4,900 250 Climbing Miami Center
Fri 04:18:34 PM 26.1664 -81.0556 88° East 122 140 5,000 100 Climbing Miami Center
Fri 04:19:34 PM 26.1694 -81.0164 85° East 122 140 5,100 -750 Climbing Miami Center
Fri 04:20:00 PM 26.1817 -80.8034 88° East  Level Estimated
Fri 04:20:34 PM 26.1706 -80.9817 88° East 122 140 3,500  Level Miami Center
Fri 04:21:34 PM 26.1714 -80.9469 88° East 122 140 3,500  Level Miami Center
Fri 04:23:00 PM 26.1676 -80.8958 95° East  Level FlightAware Approximate
Fri 04:30:00 PM 26.1739 -80.6452 88° East  Level FlightAware Approximate
Fri 04:31:00 PM 26.1750 -80.6094 88° East  Level FlightAware Approximate
Fri 04:32:00 PM 26.1761 -80.5737 88° East  Level FlightAware Approximate
Fri 04:33:00 PM 26.1771 -80.5379 88° East  Level FlightAware Approximate
Fri 04:34:00 PM 26.1781 -80.5021 88° East  Level FlightAware Approximate
Fri 04:35:00 PM 26.1791 -80.4663 88° East  Level FlightAware Approximate
Fri 04:36:00 PM 26.1802 -80.4305 88° East  Level FlightAware Approximate
Fri 04:37:00 PM 26.1812 -80.3948 88° East  Level FlightAware Approximate
Fri 04:38:00 PM 26.1822 -80.3590 88° East  Level FlightAware Approximate
Fri 04:39:00 PM 26.1831 -80.3232 88° East  Level FlightAware Approximate
Fri 04:40:00 PM 26.1833 -80.2874 90° East  Level FlightAware Approximate
Fri 04:41:00 PM 26.1833 -80.2516 90° East  Level FlightAware Approximate
Fri 04:42:00 PM 26.1833 -80.2158 90° East  Level FlightAware Approximate
Fri 04:43:00 PM 26.1833 -80.1800 90° East  Level FlightAware Approximate
Fri 04:44:00 PM 26.1833 -80.1667 90° East  Level FlightAware Approximate
Fri 04:45:00 PM 26.1973 -80.1707 90° East  Level Estimated
Fri 04:46:00 PM 26.1973 -80.1707 90° East  Level Estimated
Fri 04:47:00 PM 26.1973 -80.1707 90° East  Level Estimated
Fri 04:48:00 PM 26.1973 -80.1707 90° East  Level Estimated
Fri 04:49:00 PM 26.1973 -80.1707 90° East  Level Estimated
Fri 04:50:00 PM 26.1973 -80.1707 90° East  Level Estimated

Login

Don't have an account? Register now (free) for customized features, flight alerts, and more!